createdAt,value
2019-01-26T00:00:03.072Z,68.14
2019-01-26T00:05:09.430Z,69.17
2019-01-26T00:10:13.975Z,68.94
2019-01-26T00:15:18.523Z,71.04
2019-01-26T00:20:22.952Z,72.31
2019-01-26T00:25:27.301Z,73.57
2019-01-26T00:30:31.786Z,77.71
2019-01-26T00:35:36.157Z,79.64
2019-01-26T00:40:40.531Z,79.99
2019-01-26T00:45:44.899Z,81.00
2019-01-26T00:50:49.339Z,82.13
2019-01-26T00:55:53.689Z,81.07
2019-01-26T01:00:58.062Z,78.82
2019-01-26T01:06:02.698Z,79.55
2019-01-26T01:11:07.226Z,78.00
2019-01-26T01:16:11.656Z,77.69
2019-01-26T01:21:16.811Z,77.16
2019-01-26T01:26:21.221Z,76.11
2019-01-26T01:31:25.569Z,76.75
2019-01-26T01:36:29.928Z,77.70
2019-01-26T01:41:34.317Z,77.59
2019-01-26T01:46:42.852Z,79.15
2019-01-26T01:51:44.789Z,78.66
2019-01-26T01:56:49.586Z,79.65
2019-01-26T02:01:53.951Z,78.40
2019-01-26T02:06:58.333Z,80.89
2019-01-26T02:12:02.686Z,79.04
2019-01-26T02:17:07.089Z,79.31
2019-01-26T02:22:11.479Z,80.19
2019-01-26T02:27:15.866Z,81.14
2019-01-26T02:32:20.252Z,78.99
2019-01-26T02:37:24.607Z,80.17
2019-01-26T02:42:28.992Z,78.68
2019-01-26T02:47:33.461Z,79.66
2019-01-26T02:52:37.896Z,80.03
2019-01-26T02:57:42.336Z,79.79
2019-01-26T03:02:46.713Z,81.12
2019-01-26T03:07:51.156Z,82.33
2019-01-26T03:12:55.507Z,82.21
2019-01-26T03:17:59.882Z,84.56
2019-01-26T03:23:04.403Z,87.69
2019-01-26T03:28:08.763Z,90.29
2019-01-26T03:33:13.149Z,90.59
2019-01-26T03:38:17.510Z,92.79
2019-01-26T03:43:21.975Z,95.04
2019-01-26T03:48:26.408Z,93.30
2019-01-26T03:53:30.749Z,93.54
2019-01-26T03:58:35.322Z,96.16
2019-01-26T04:03:39.708Z,95.52
2019-01-26T04:08:44.092Z,94.38
2019-01-26T04:13:48.466Z,94.85
2019-01-26T04:18:53.227Z,96.08
2019-01-26T04:23:58.166Z,94.69
2019-01-26T04:29:02.528Z,96.05
2019-01-26T04:34:06.973Z,96.00
2019-01-26T04:39:11.358Z,96.00
2019-01-26T04:44:15.752Z,95.23
2019-01-26T04:49:20.098Z,95.21
2019-01-26T04:54:24.496Z,95.44
2019-01-26T04:59:28.889Z,95.66
2019-01-26T05:04:33.504Z,95.78
2019-01-26T05:09:37.956Z,95.78
2019-01-26T05:14:42.382Z,98.08
2019-01-26T05:19:46.810Z,97.78
2019-01-26T05:24:51.206Z,96.80
2019-01-26T05:29:55.542Z,96.14
2019-01-26T05:35:00.272Z,96.42
2019-01-26T05:40:08.129Z,97.52
2019-01-26T05:45:15.385Z,97.28
2019-01-26T05:50:22.690Z,97.14
2019-01-26T05:55:27.136Z,96.62
2019-01-26T06:00:32.874Z,96.54
2019-01-26T06:05:37.256Z,95.95
2019-01-26T06:10:41.609Z,95.31
2019-01-26T06:15:46.001Z,95.35
2019-01-26T06:20:50.359Z,95.55
2019-01-26T06:25:54.721Z,95.19
2019-01-26T06:30:59.079Z,95.44
2019-01-26T06:36:03.446Z,95.21
2019-01-26T06:41:07.792Z,94.56
2019-01-26T06:46:12.149Z,93.68
2019-01-26T06:51:16.563Z,92.73
2019-01-26T06:56:20.920Z,91.78
2019-01-26T07:01:25.276Z,92.23
2019-01-26T07:06:31.287Z,92.21
2019-01-26T07:11:35.671Z,91.33
2019-01-26T07:16:40.023Z,90.33
2019-01-26T07:21:44.499Z,90.68
2019-01-26T07:26:48.907Z,90.69
2019-01-26T07:31:53.329Z,90.08
2019-01-26T07:36:57.678Z,90.22
2019-01-26T07:42:02.035Z,89.30
2019-01-26T07:47:06.386Z,90.02
2019-01-26T07:52:10.763Z,89.42
2019-01-26T07:57:15.175Z,90.64
2019-01-26T08:02:19.491Z,90.43
2019-01-26T08:07:23.881Z,90.12
2019-01-26T08:12:28.704Z,89.94
2019-01-26T08:17:33.085Z,91.57
2019-01-26T08:22:37.426Z,91.82
2019-01-26T08:27:41.768Z,92.51
2019-01-26T08:32:46.311Z,93.16
2019-01-26T08:37:50.971Z,93.00
2019-01-26T08:42:55.343Z,93.07
2019-01-26T08:47:59.706Z,94.21
2019-01-26T08:53:04.074Z,93.69
2019-01-26T08:58:08.413Z,93.92
2019-01-26T09:03:14.411Z,93.31
2019-01-26T09:08:18.759Z,94.11
2019-01-26T09:13:23.127Z,93.31
2019-01-26T09:18:27.562Z,94.89
2019-01-26T09:23:32.300Z,94.18
2019-01-26T09:28:36.668Z,94.79
2019-01-26T09:33:41.005Z,93.88
2019-01-26T09:38:45.517Z,93.11
2019-01-26T09:43:49.882Z,94.14
2019-01-26T09:48:54.351Z,94.42
2019-01-26T09:53:58.795Z,94.15
2019-01-26T09:59:03.365Z,94.78
2019-01-26T10:04:07.701Z,93.76
2019-01-26T10:09:13.085Z,93.71
2019-01-26T10:14:17.432Z,94.59
2019-01-26T10:19:22.471Z,95.33
2019-01-26T10:24:26.885Z,95.67
2019-01-26T10:29:31.239Z,95.06
2019-01-26T10:34:35.600Z,94.91
2019-01-26T10:39:40.259Z,95.12
2019-01-26T10:44:45.296Z,93.91
2019-01-26T10:49:50.908Z,94.33
2019-01-26T10:54:55.278Z,93.80
2019-01-26T10:59:59.815Z,95.08
2019-01-26T11:05:05.335Z,96.15
2019-01-26T11:10:12.863Z,95.87
2019-01-26T11:15:17.369Z,95.65
2019-01-26T11:20:21.754Z,95.06
2019-01-26T11:25:26.111Z,95.70
2019-01-26T11:30:32.092Z,96.21
2019-01-26T11:35:36.447Z,95.95
2019-01-26T11:40:40.797Z,95.48
2019-01-26T11:45:46.826Z,94.92
2019-01-26T11:50:52.841Z,95.29
2019-01-26T11:56:01.586Z,96.47
2019-01-26T12:01:07.883Z,97.01
2019-01-26T12:06:16.837Z,96.77
2019-01-26T12:11:21.233Z,96.68
2019-01-26T12:16:27.061Z,96.04
2019-01-26T12:21:31.751Z,96.53
2019-01-26T12:26:37.369Z,95.74
2019-01-26T12:31:42.047Z,96.44
2019-01-26T12:36:46.530Z,97.30
2019-01-26T12:41:51.054Z,97.81
2019-01-26T12:46:55.444Z,97.22
2019-01-26T12:51:59.860Z,97.97
2019-01-26T12:57:04.409Z,97.30
2019-01-26T13:02:09.024Z,97.48
2019-01-26T13:07:13.435Z,97.17
2019-01-26T13:12:17.837Z,97.67
2019-01-26T13:17:22.179Z,97.70
2019-01-26T13:22:26.539Z,98.20
2019-01-26T13:27:30.895Z,97.54
2019-01-26T13:32:35.436Z,97.55
2019-01-26T13:37:39.859Z,97.00
2019-01-26T13:42:44.233Z,97.22
2019-01-26T13:47:48.576Z,98.00
2019-01-26T13:52:52.927Z,97.22
2019-01-26T13:57:57.274Z,98.09
2019-01-26T14:03:01.673Z,97.29
2019-01-26T14:08:06.202Z,96.81
2019-01-26T14:13:10.547Z,97.17
2019-01-26T14:18:14.884Z,96.31
2019-01-26T14:23:19.239Z,96.92
2019-01-26T14:28:23.597Z,97.14
2019-01-26T14:33:29.005Z,96.04
2019-01-26T14:38:33.369Z,97.83
2019-01-26T14:43:38.818Z,97.28
2019-01-26T14:48:43.153Z,96.37
2019-01-26T14:53:47.960Z,98.12
2019-01-26T14:58:52.454Z,97.89
2019-01-26T15:03:56.866Z,98.98
2019-01-26T15:09:01.191Z,97.92
2019-01-26T15:14:07.392Z,97.72
2019-01-26T15:19:11.788Z,98.28
2019-01-26T15:24:16.116Z,98.81
2019-01-26T15:29:20.535Z,98.73
2019-01-26T15:34:24.917Z,99.22
2019-01-26T15:39:29.282Z,99.49
2019-01-26T15:44:33.634Z,99.40
2019-01-26T15:49:38.005Z,99.04
2019-01-26T15:54:42.371Z,98.99
2019-01-26T15:59:53.269Z,99.17
2019-01-26T16:04:52.975Z,99.20
2019-01-26T16:09:57.369Z,99.20
2019-01-26T16:15:01.715Z,99.35
2019-01-26T16:20:09.310Z,99.56
2019-01-26T16:25:15.457Z,99.38
2019-01-26T16:30:25.080Z,99.46
2019-01-26T16:35:29.622Z,99.02
2019-01-26T16:40:35.748Z,99.22
2019-01-26T16:45:40.265Z,98.85
2019-01-26T16:50:44.733Z,98.77
2019-01-26T16:55:49.063Z,99.00
2019-01-26T17:00:53.695Z,99.36
2019-01-26T17:05:58.082Z,99.15
2019-01-26T17:11:02.483Z,97.91
2019-01-26T17:16:06.953Z,98.11
2019-01-26T17:21:11.362Z,97.88
2019-01-26T17:26:15.778Z,96.96
2019-01-26T17:31:20.131Z,98.00
2019-01-26T17:36:24.498Z,96.80
2019-01-26T17:41:29.002Z,96.81
2019-01-26T17:46:33.351Z,96.76
2019-01-26T17:51:37.684Z,96.63
2019-01-26T17:56:42.211Z,96.88
2019-01-26T18:01:46.596Z,97.69
2019-01-26T18:06:52.130Z,97.08
2019-01-26T18:11:57.582Z,96.05
2019-01-26T18:17:01.915Z,96.17
2019-01-26T18:22:06.417Z,96.72
2019-01-26T18:27:10.770Z,97.19
2019-01-26T18:32:15.134Z,96.23
2019-01-26T18:37:19.491Z,96.42
2019-01-26T18:42:23.950Z,96.61
2019-01-26T18:47:28.459Z,96.20
2019-01-26T18:52:33.911Z,95.90
2019-01-26T18:57:41.356Z,96.21
2019-01-26T19:02:46.909Z,95.47
2019-01-26T19:07:51.413Z,95.24
2019-01-26T19:12:55.952Z,95.85
2019-01-26T19:18:00.298Z,95.15
2019-01-26T19:23:04.999Z,95.73
2019-01-26T19:28:09.335Z,95.59
2019-01-26T19:33:13.721Z,97.00
2019-01-26T19:38:18.079Z,96.29
2019-01-26T19:43:22.513Z,96.38
2019-01-26T19:48:26.897Z,96.89
2019-01-26T19:53:31.314Z,96.51
2019-01-26T19:58:35.830Z,97.32
2019-01-26T20:03:40.351Z,97.38
2019-01-26T20:08:44.703Z,97.91
2019-01-26T20:13:49.071Z,97.36
2019-01-26T20:18:53.403Z,95.33
2019-01-26T20:23:57.753Z,95.31
2019-01-26T20:29:02.158Z,94.82
2019-01-26T20:34:07.563Z,95.67
2019-01-26T20:39:12.007Z,95.34
2019-01-26T20:44:17.483Z,94.83
2019-01-26T20:49:21.942Z,94.75
2019-01-26T20:54:26.305Z,94.54
2019-01-26T20:59:30.716Z,95.45
2019-01-26T21:04:35.119Z,93.98
2019-01-26T21:09:39.480Z,93.56
2019-01-26T21:14:43.878Z,93.27
2019-01-26T21:19:48.282Z,94.77
2019-01-26T21:24:52.688Z,93.97
2019-01-26T21:29:57.026Z,92.84
2019-01-26T21:35:01.522Z,92.21
2019-01-26T21:40:09.311Z,93.10
2019-01-26T21:45:15.004Z,93.36
2019-01-26T21:50:27.591Z,92.04
2019-01-26T21:55:31.943Z,92.18
2019-01-26T22:00:36.379Z,91.39
2019-01-26T22:05:40.738Z,90.47
2019-01-26T22:10:45.071Z,91.00
2019-01-26T22:15:49.480Z,90.24
2019-01-26T22:20:54.023Z,89.15
2019-01-26T22:25:58.433Z,89.08
2019-01-26T22:31:02.775Z,88.98
2019-01-26T22:36:07.120Z,89.04
2019-01-26T22:41:11.502Z,88.58
2019-01-26T22:46:15.977Z,86.74
2019-01-26T22:51:20.455Z,87.40
2019-01-26T22:56:24.837Z,87.46
2019-01-26T23:01:29.867Z,87.96
2019-01-26T23:06:40.143Z,86.46
2019-01-26T23:11:56.488Z,85.72
2019-01-26T23:17:39.794Z,85.68
2019-01-26T23:22:52.969Z,86.19
2019-01-26T23:28:09.248Z,85.58
2019-01-26T23:33:13.764Z,86.46
2019-01-26T23:38:18.093Z,87.55
2019-01-26T23:43:22.533Z,87.64
2019-01-26T23:48:26.916Z,86.70
2019-01-26T23:53:31.303Z,84.42
2019-01-26T23:58:35.643Z,85.42
